Time;durP1;ratioP1;P1;durP2;ratioP2;P2;SDS_P1;SDS_P2;PMS_P1;PMS_P2;Temp;Humidity;BMP_temperature;BMP_pressure;BME280_temperature;BME280_humidity;BME280_pressure;Samples;Min_cycle;Max_cycle;Signal;HPM_P1;HPM_P2
2023/01/07 00:01:24;;;;;;;25.40;20.10;;;;;;;6.88;100.00;99343.55;106021;1281;59671;-72
2023/01/07 00:03:51;;;;;;;27.60;21.60;;;;;;;6.89;100.00;99342.63;106022;1287;66613;-72
2023/01/07 00:06:25;;;;;;;29.20;21.10;;;;;;;6.90;100.00;99341.54;106040;1288;59712;-73
2023/01/07 00:08:53;;;;;;;24.30;20.30;;;;;;;6.91;100.00;99340.59;106030;1289;63755;-73
2023/01/07 00:11:24;;;;;;;28.10;20.30;;;;;;;6.92;100.00;99346.39;106058;1288;59804;-73
2023/01/07 00:13:52;;;;;;;26.80;21.00;;;;;;;6.93;100.00;99342.08;106053;1287;60154;-73
2023/01/07 00:16:21;;;;;;;28.20;20.40;;;;;;;6.94;100.00;99339.20;106035;1289;67695;-73
2023/01/07 00:18:49;;;;;;;24.30;20.10;;;;;;;6.94;100.00;99345.38;106038;1289;60746;-73
2023/01/07 00:21:17;;;;;;;28.90;19.00;;;;;;;6.94;100.00;99350.55;106049;1288;63791;-73
2023/01/07 00:23:45;;;;;;;26.70;20.40;;;;;;;6.94;100.00;99348.92;106029;1288;59855;-73
2023/01/07 00:26:15;;;;;;;24.10;19.20;;;;;;;6.94;100.00;99347.89;105689;1289;59591;-73
2023/01/07 00:28:42;;;;;;;;;;;;;;;6.94;100.00;99347.16;106051;1287;76429;-73
2023/01/07 00:31:13;;;;;;;24.90;19.90;;;;;;;6.94;100.00;99349.08;106050;1282;60788;-73
2023/01/07 00:33:48;;;;;;;26.60;19.20;;;;;;;6.96;100.00;99350.42;106045;1283;65167;-73
2023/01/07 00:36:14;;;;;;;27.60;19.90;;;;;;;6.97;100.00;99352.30;105695;1297;59779;-73
2023/01/07 00:38:40;;;;;;;23.00;19.20;;;;;;;6.98;100.00;99353.32;105997;1281;59742;-74
2023/01/07 00:41:06;;;;;;;23.30;18.70;;;;;;;6.99;100.00;99354.38;106067;1281;59762;-72
2023/01/07 00:43:32;;;;;;;23.00;18.60;;;;;;;6.98;100.00;99354.23;106024;1289;59751;-73
2023/01/07 00:45:58;;;;;;;21.80;19.40;;;;;;;6.99;100.00;99349.91;105754;1289;61043;-74
2023/01/07 00:48:24;;;;;;;22.70;19.60;;;;;;;6.99;100.00;99349.74;106039;1282;59954;-74
2023/01/07 00:50:53;;;;;;;23.50;19.50;;;;;;;7.00;100.00;99353.95;106043;1290;59794;-73
2023/01/07 00:53:20;;;;;;;22.50;18.20;;;;;;;6.98;100.00;99358.60;105903;1285;59856;-73
2023/01/07 00:55:47;;;;;;;23.90;18.40;;;;;;;6.97;100.00;99360.29;106031;1288;60855;-72
2023/01/07 00:58:17;;;;;;;24.00;19.60;;;;;;;6.93;100.00;99362.94;106044;1288;62463;-73
2023/01/07 01:00:43;;;;;;;24.10;19.40;;;;;;;6.88;100.00;99369.86;106036;1288;59694;-73
2023/01/07 01:03:10;;;;;;;24.60;20.20;;;;;;;6.83;100.00;99374.48;106057;1288;59653;-73
2023/01/07 01:05:37;;;;;;;28.90;24.00;;;;;;;6.79;100.00;99378.56;106038;1289;68080;-74
2023/01/07 01:08:03;;;;;;;30.90;22.50;;;;;;;6.76;100.00;99382.05;106018;1282;59924;-74
2023/01/07 01:10:29;;;;;;;28.90;22.70;;;;;;;6.75;100.00;99381.24;106036;1289;60015;-74
2023/01/07 01:12:55;;;;;;;27.50;21.90;;;;;;;6.74;100.00;99383.21;105676;1294;59903;-74
2023/01/07 01:15:22;;;;;;;26.80;21.70;;;;;;;6.75;100.00;99386.33;106049;1288;59695;-73
2023/01/07 01:17:50;;;;;;;29.70;23.30;;;;;;;6.77;100.00;99386.81;106052;1289;60133;-72
2023/01/07 01:20:17;;;;;;;28.40;22.30;;;;;;;6.78;100.00;99386.73;106039;1288;61093;-73
2023/01/07 01:22:43;;;;;;;28.00;22.30;;;;;;;6.80;100.00;99390.19;106050;1280;64940;-73
2023/01/07 01:25:10;;;;;;;31.60;25.20;;;;;;;6.81;100.00;99390.31;106029;1288;60154;-73
2023/01/07 01:27:36;;;;;;;29.40;23.70;;;;;;;6.82;100.00;99390.98;106020;1287;59772;-73
2023/01/07 01:30:05;;;;;;;32.60;24.20;;;;;;;6.84;100.00;99391.96;105780;1295;66601;-73
2023/01/07 01:32:32;;;;;;;30.00;21.40;;;;;;;6.85;100.00;99394.57;106045;1288;60010;-74
2023/01/07 01:34:58;;;;;;;27.50;22.20;;;;;;;6.86;100.00;99394.18;106056;1288;64817;-73
2023/01/07 01:37:24;;;;;;;27.50;23.50;;;;;;;6.87;100.00;99393.77;106017;1289;59890;-72
2023/01/07 01:39:50;;;;;;;27.00;21.80;;;;;;;6.86;100.00;99393.27;106024;1281;59981;-73
2023/01/07 01:42:20;;;;;;;25.30;22.40;;;;;;;6.83;100.00;99390.55;106043;1288;60001;-73
2023/01/07 01:44:53;;;;;;;25.80;20.60;;;;;;;6.81;100.00;99386.98;106037;1288;60253;-73
2023/01/07 01:47:22;;;;;;;27.50;20.30;;;;;;;6.76;100.00;99383.47;106035;1288;63701;-73
2023/01/07 01:50:14;;;;;;;25.80;21.90;;;;;;;6.70;100.00;99382.33;105733;1299;59796;-72
2023/01/07 01:53:01;;;;;;;27.80;22.50;;;;;;;6.67;100.00;99385.46;105426;1297;59849;-73
2023/01/07 01:55:37;;;;;;;28.90;22.80;;;;;;;6.66;100.00;99384.47;105410;1297;67746;-73
2023/01/07 01:58:08;;;;;;;21.90;19.50;;;;;;;6.66;100.00;99381.99;105252;1292;60056;-73
2023/01/07 02:00:35;;;;;;;23.30;19.10;;;;;;;6.68;100.00;99383.33;105390;1290;64060;-72
2023/01/07 02:03:04;;;;;;;23.60;18.90;;;;;;;6.69;100.00;99381.51;105412;1297;59840;-73
2023/01/07 02:05:35;;;;;;;21.40;17.80;;;;;;;6.73;100.00;99380.27;105423;1298;59837;-71
2023/01/07 02:08:01;;;;;;;21.70;18.00;;;;;;;6.74;100.00;99379.31;105441;1297;67391;-73
2023/01/07 02:10:30;;;;;;;24.60;18.40;;;;;;;6.76;100.00;99378.71;105174;1300;59969;-73
2023/01/07 02:13:08;;;;;;;27.30;20.30;;;;;;;6.77;100.00;99373.88;105416;1297;64942;-73
2023/01/07 02:16:04;;;;;;;22.40;18.20;;;;;;;6.79;100.00;99379.65;105410;1297;59834;-73
2023/01/07 02:19:08;;;;;;;24.10;18.70;;;;;;;6.80;100.00;99382.41;104716;1304;59755;-73
2023/01/07 02:21:44;;;;;;;24.40;19.40;;;;;;;6.82;100.00;99377.37;104916;1301;66743;-73
2023/01/07 02:24:31;;;;;;;21.80;17.90;;;;;;;6.85;100.00;99375.15;104942;1304;60896;-73
2023/01/07 02:27:10;;;;;;;27.80;18.10;;;;;;;6.86;100.00;99380.40;104969;1302;64033;-74
2023/01/07 02:29:46;;;;;;;24.70;19.20;;;;;;;6.87;100.00;99381.23;105129;1305;59776;-73
2023/01/07 02:32:30;;;;;;;23.50;17.60;;;;;;;6.88;100.00;99383.82;105384;1299;59648;-73
2023/01/07 02:35:15;;;;;;;25.80;18.60;;;;;;;6.87;100.00;99383.85;105569;1294;66620;-73
2023/01/07 02:37:50;;;;;;;24.00;19.60;;;;;;;6.86;100.00;99383.91;105572;1294;59823;-73
2023/01/07 02:40:29;;;;;;;27.50;20.70;;;;;;;6.85;100.00;99378.34;105547;1295;71801;-73
2023/01/07 02:43:17;;;;;;;26.70;21.70;;;;;;;6.82;100.00;99374.70;105362;1297;60095;-74
2023/01/07 02:45:46;;;;;;;30.60;25.90;;;;;;;6.79;100.00;99377.13;105599;1294;59638;-74
2023/01/07 02:48:16;;;;;;;28.30;24.30;;;;;;;6.77;100.00;99383.96;105566;1294;67664;-74
2023/01/07 02:50:42;;;;;;;28.50;24.70;;;;;;;6.74;100.00;99385.86;105491;1297;61000;-74
2023/01/07 02:53:12;;;;;;;30.10;26.30;;;;;;;6.71;100.00;99389.68;105560;1295;60209;-74
2023/01/07 02:55:44;;;;;;;30.20;23.60;;;;;;;6.69;100.00;99387.86;105785;1289;59717;-73
2023/01/07 02:58:22;;;;;;;25.10;22.30;;;;;;;6.66;100.00;99388.19;106060;1288;59568;-73
2023/01/07 03:01:06;;;;;;;26.40;23.00;;;;;;;6.63;100.00;99386.38;106053;1290;65697;-73
2023/01/07 03:03:41;;;;;;;31.00;26.20;;;;;;;6.60;100.00;99383.49;106036;1288;61102;-73
2023/01/07 03:06:26;;;;;;;33.00;27.90;;;;;;;6.55;100.00;99385.80;106039;1288;64319;-73
2023/01/07 03:09:12;;;;;;;30.90;26.80;;;;;;;6.51;100.00;99386.02;106059;1289;59635;-73
2023/01/07 03:11:46;;;;;;;32.70;29.10;;;;;;;6.49;100.00;99380.46;105511;1290;59699;-73
2023/01/07 03:14:18;;;;;;;30.60;24.70;;;;;;;6.48;100.00;99378.20;105303;1300;67705;-73
2023/01/07 03:16:59;;;;;;;28.30;23.60;;;;;;;6.45;100.00;99378.84;105529;1297;60826;-73
2023/01/07 03:19:29;;;;;;;28.80;22.50;;;;;;;6.41;100.00;99378.51;105516;1304;64970;-73
2023/01/07 03:21:58;;;;;;;26.00;21.60;;;;;;;6.36;100.00;99374.66;105507;1297;59844;-73
2023/01/07 03:24:26;;;;;;;30.80;22.40;;;;;;;6.28;100.00;99373.23;105535;1295;59942;-73
2023/01/07 03:26:57;;;;;;;29.90;24.50;;;;;;;6.20;100.00;99376.27;105513;1296;66564;-72
2023/01/07 03:29:23;;;;;;;;;;;;;;;6.10;100.00;99381.25;105542;1297;59926;-72
2023/01/07 03:31:55;;;;;;;26.00;23.10;;;;;;;5.99;100.00;99379.23;105523;1297;59775;-73
2023/01/07 03:34:23;;;;;;;28.70;24.50;;;;;;;5.89;100.00;99381.93;105521;1297;59777;-73
2023/01/07 03:36:54;;;;;;;31.40;24.00;;;;;;;5.79;100.00;99382.17;105514;1296;59812;-72
2023/01/07 03:39:24;;;;;;;28.70;22.60;;;;;;;5.69;100.00;99380.64;105506;1290;66873;-72
2023/01/07 03:44:35;;;;;;;32.90;26.90;;;;;;;5.49;100.00;99375.45;105497;1297;64909;-73
2023/01/07 03:47:02;;;;;;;37.70;29.10;;;;;;;5.40;100.00;99374.58;105533;1295;59853;-73
2023/01/07 03:49:29;;;;;;;40.60;34.30;;;;;;;5.34;100.00;99375.52;105853;1288;59750;-73
2023/01/07 03:51:55;;;;;;;42.00;34.60;;;;;;;5.29;100.00;99377.83;106049;1288;66629;-72
2023/01/07 03:54:22;;;;;;;43.10;36.60;;;;;;;5.24;100.00;99374.49;106065;1281;59689;-72
2023/01/07 03:56:49;;;;;;;42.70;37.70;;;;;;;5.19;100.00;99378.73;106048;1281;59740;-73
2023/01/07 03:59:14;;;;;;;41.50;34.50;;;;;;;5.13;100.00;99381.42;106041;1289;59761;-73
2023/01/07 04:01:41;;;;;;;38.00;29.80;;;;;;;5.08;100.00;99380.58;106039;1281;59815;-73
2023/01/07 04:04:07;;;;;;;34.40;29.00;;;;;;;5.04;100.00;99385.64;106053;1288;59975;-73
2023/01/07 04:06:34;;;;;;;40.20;29.40;;;;;;;5.03;100.00;99386.23;105825;1284;59969;-73
2023/01/07 04:09:00;;;;;;;35.20;27.40;;;;;;;5.01;100.00;99393.33;105878;1285;59829;-73
2023/01/07 04:11:26;;;;;;;35.90;28.90;;;;;;;4.99;100.00;99392.70;105821;1292;59880;-72
2023/01/07 04:13:52;;;;;;;42.80;33.00;;;;;;;4.97;100.00;99385.77;106066;1281;59829;-72
2023/01/07 04:16:18;;;;;;;39.60;31.10;;;;;;;4.95;100.00;99377.02;106051;1288;59759;-72
2023/01/07 04:18:44;;;;;;;38.80;29.40;;;;;;;4.94;100.00;99373.68;106043;1288;59704;-72
2023/01/07 04:21:10;;;;;;;38.90;29.60;;;;;;;4.96;100.00;99375.23;106063;1288;59656;-73
2023/01/07 04:23:36;;;;;;;39.20;29.90;;;;;;;4.95;100.00;99379.65;106032;1288;59745;-73
2023/01/07 04:26:02;;;;;;;45.30;32.70;;;;;;;4.92;100.00;99385.74;106077;1288;59774;-73
2023/01/07 04:28:28;;;;;;;38.10;31.80;;;;;;;4.89;100.00;99387.46;106028;1281;60967;-73
2023/01/07 04:30:57;;;;;;;49.50;38.60;;;;;;;4.82;100.00;99388.95;106062;1281;59903;-72
2023/01/07 04:33:23;;;;;;;38.20;31.40;;;;;;;4.72;100.00;99388.61;106040;1288;59730;-72
2023/01/07 04:35:49;;;;;;;32.90;28.30;;;;;;;4.61;100.00;99392.17;106063;1281;59683;-73
2023/01/07 04:38:16;;;;;;;37.00;29.60;;;;;;;4.51;100.00;99391.31;106037;1289;59730;-72
2023/01/07 04:40:43;;;;;;;40.40;30.70;;;;;;;4.42;100.00;99394.95;106040;1288;59902;-73
2023/01/07 04:43:09;;;;;;;45.80;34.20;;;;;;;4.33;100.00;99393.52;105816;1284;59715;-73
2023/01/07 04:45:35;;;;;;;39.90;33.20;;;;;;;4.29;100.00;99395.94;106062;1288;59625;-73
2023/01/07 04:48:02;;;;;;;48.50;37.70;;;;;;;4.29;100.00;99391.74;105832;1283;60227;-73
2023/01/07 04:50:28;;;;;;;45.10;36.60;;;;;;;4.29;100.00;99388.73;106058;1288;59682;-73
2023/01/07 04:52:54;;;;;;;54.30;41.30;;;;;;;4.28;100.00;99385.09;106071;1288;60099;-73
2023/01/07 04:55:20;;;;;;;55.40;41.30;;;;;;;4.30;100.00;99389.41;106069;1288;59902;-73
2023/01/07 04:57:46;;;;;;;54.20;38.80;;;;;;;4.30;100.00;99390.80;105910;1289;59775;-73
2023/01/07 05:00:12;;;;;;;51.50;42.00;;;;;;;4.27;100.00;99393.03;105754;1294;60008;-73
2023/01/07 05:02:39;;;;;;;51.80;41.10;;;;;;;4.24;100.00;99394.55;105751;1287;59707;-72
2023/01/07 05:05:05;;;;;;;49.30;41.90;;;;;;;4.18;100.00;99399.13;106053;1288;59748;-73
2023/01/07 05:07:31;;;;;;;58.70;45.20;;;;;;;4.11;100.00;99401.15;105810;1285;59858;-73
2023/01/07 05:09:58;;;;;;;51.00;40.40;;;;;;;4.05;100.00;99402.08;106027;1288;59763;-73
2023/01/07 05:12:23;;;;;;;47.70;35.70;;;;;;;4.00;100.00;99410.30;106056;1289;59809;-73
2023/01/07 05:14:50;;;;;;;45.20;36.70;;;;;;;4.00;100.00;99407.14;106055;1288;60130;-72
2023/01/07 05:17:15;;;;;;;45.00;37.60;;;;;;;4.01;100.00;99408.88;106102;1288;59788;-72
2023/01/07 05:19:41;;;;;;;52.30;44.30;;;;;;;3.98;100.00;99416.72;106020;1288;59774;-73
2023/01/07 05:22:08;;;;;;;53.00;44.30;;;;;;;3.95;100.00;99416.64;106029;1281;59635;-73
2023/01/07 05:24:34;;;;;;;47.20;39.90;;;;;;;3.92;100.00;99414.95;106066;1288;59839;-73
2023/01/07 05:27:00;;;;;;;46.60;37.80;;;;;;;3.84;100.00;99418.20;106053;1288;59830;-73
2023/01/07 05:29:26;;;;;;;49.00;38.90;;;;;;;3.80;100.00;99420.10;106034;1289;59735;-73
2023/01/07 05:31:52;;;;;;;48.30;38.20;;;;;;;3.77;100.00;99419.31;106045;1289;60809;-73
2023/01/07 05:34:18;;;;;;;49.80;40.30;;;;;;;3.72;100.00;99415.25;106047;1288;59840;-73
2023/01/07 05:36:44;;;;;;;47.60;38.50;;;;;;;3.72;100.00;99415.27;106062;1283;59883;-74
2023/01/07 05:39:10;;;;;;;53.50;41.70;;;;;;;3.70;100.00;99418.15;106030;1282;59887;-73
2023/01/07 05:41:36;;;;;;;51.40;40.00;;;;;;;3.68;100.00;99418.54;106040;1282;60093;-74
2023/01/07 05:44:03;;;;;;;47.10;38.50;;;;;;;3.68;100.00;99421.39;105983;1288;142661;-73
2023/01/07 05:46:30;;;;;;;51.30;42.20;;;;;;;3.65;100.00;99423.56;105776;1298;67815;-73
2023/01/07 05:48:56;;;;;;;51.40;40.80;;;;;;;3.61;100.00;99420.89;106051;1288;59974;-73
2023/01/07 05:51:21;;;;;;;57.90;43.90;;;;;;;3.57;100.00;99422.10;106029;1290;60432;-73
2023/01/07 05:53:48;;;;;;;55.00;41.00;;;;;;;3.52;100.00;99419.23;106056;1288;59674;-74
2023/01/07 05:56:14;;;;;;;58.40;45.00;;;;;;;3.50;100.00;99417.38;106049;1288;60143;-73
2023/01/07 05:58:40;;;;;;;68.00;51.30;;;;;;;3.50;100.00;99417.73;106052;1289;59764;-73
2023/01/07 06:01:06;;;;;;;95.20;52.50;;;;;;;3.48;100.00;99421.29;106029;1288;59818;-72
2023/01/07 06:03:32;;;;;;;125.60;55.00;;;;;;;3.47;100.00;99425.17;106040;1281;59820;-73
2023/01/07 06:06:05;;;;;;;121.40;67.60;;;;;;;3.46;100.00;99425.40;106048;1285;59757;-72
2023/01/07 06:08:36;;;;;;;81.80;56.10;;;;;;;3.45;100.00;99420.69;106064;1287;59633;-73
2023/01/07 06:11:03;;;;;;;73.10;53.90;;;;;;;3.45;100.00;99423.51;106038;1289;66676;-73
2023/01/07 06:13:31;;;;;;;76.40;53.90;;;;;;;3.42;100.00;99424.47;106029;1288;60924;-73
2023/01/07 06:16:05;;;;;;;76.60;53.20;;;;;;;3.39;100.00;99424.74;106016;1289;64889;-73
2023/01/07 06:18:32;;;;;;;72.70;49.70;;;;;;;3.36;100.00;99420.97;105922;1284;60206;-73
2023/01/07 06:20:58;;;;;;;74.80;50.90;;;;;;;3.33;100.00;99423.88;106043;1290;60262;-73
2023/01/07 06:23:24;;;;;;;92.10;46.00;;;;;;;3.30;100.00;99422.19;106053;1282;60072;-73
2023/01/07 06:25:50;;;;;;;63.50;46.00;;;;;;;3.30;100.00;99421.31;106060;1282;60170;-72
2023/01/07 06:28:18;;;;;;;102.60;57.80;;;;;;;3.29;100.00;99424.34;106038;1289;59679;-72
2023/01/07 06:30:45;;;;;;;91.50;50.90;;;;;;;3.28;100.00;99422.60;106044;1289;59871;-74
2023/01/07 06:33:11;;;;;;;101.90;46.80;;;;;;;3.26;100.00;99425.15;106044;1288;59472;-72
2023/01/07 06:35:39;;;;;;;80.00;45.40;;;;;;;3.19;100.00;99423.94;106037;1285;68011;-72
2023/01/07 06:38:06;;;;;;;83.90;47.90;;;;;;;3.12;100.00;99427.48;106045;1281;60914;-73
2023/01/07 06:40:32;;;;;;;111.80;48.40;;;;;;;3.06;100.00;99428.71;106058;1288;64833;-72
2023/01/07 06:42:58;;;;;;;95.50;48.20;;;;;;;3.03;100.00;99428.63;106050;1288;59747;-73
2023/01/07 06:45:24;;;;;;;183.40;49.40;;;;;;;3.01;100.00;99429.38;105297;1282;1002823;-71
2023/01/07 06:47:50;;;;;;;121.20;47.80;;;;;;;3.02;100.00;99429.89;106059;1288;59773;-72
2023/01/07 06:50:17;;;;;;;144.70;44.50;;;;;;;2.99;100.00;99428.05;106053;1288;59877;-72
2023/01/07 06:52:43;;;;;;;151.00;39.30;;;;;;;2.95;100.00;99428.33;106033;1287;59776;-73
2023/01/07 06:55:09;;;;;;;183.40;38.40;;;;;;;2.91;100.00;99434.05;106038;1288;59723;-72
2023/01/07 06:57:36;;;;;;;136.90;38.70;;;;;;;2.87;100.00;99435.56;106071;1281;60267;-72
2023/01/07 07:00:06;;;;;;;125.80;37.50;;;;;;;2.86;100.00;99434.73;106032;1282;59757;-72
2023/01/07 07:02:32;;;;;;;129.20;39.30;;;;;;;2.83;100.00;99436.04;105690;1288;61088;-72
2023/01/07 07:04:59;;;;;;;78.10;35.20;;;;;;;2.85;100.00;99435.29;105743;1290;59689;-72
2023/01/07 07:07:25;;;;;;;78.20;35.70;;;;;;;2.85;100.00;99433.55;106039;1288;59808;-72
2023/01/07 07:09:51;;;;;;;144.20;33.30;;;;;;;2.86;100.00;99438.08;106072;1288;59859;-72
2023/01/07 07:12:18;;;;;;;179.50;36.50;;;;;;;2.83;100.00;99436.56;106054;1289;60011;-72
2023/01/07 07:14:44;;;;;;;239.60;36.30;;;;;;;2.85;100.00;99442.13;105755;1292;59880;-71
2023/01/07 07:17:10;;;;;;;235.80;35.50;;;;;;;2.89;100.00;99442.89;106033;1282;59807;-72
2023/01/07 07:19:36;;;;;;;153.10;32.80;;;;;;;2.92;100.00;99446.50;106016;1287;59721;-72
2023/01/07 07:22:02;;;;;;;283.30;40.60;;;;;;;2.95;100.00;99447.13;105706;1287;60173;-72
2023/01/07 07:24:28;;;;;;;355.50;52.70;;;;;;;3.01;100.00;99449.59;106060;1281;60608;-72
2023/01/07 07:26:54;;;;;;;174.10;38.60;;;;;;;3.08;100.00;99446.39;106046;1287;59710;-71
2023/01/07 07:29:20;;;;;;;206.50;36.00;;;;;;;3.16;100.00;99449.11;106024;1288;60800;-73
2023/01/07 07:31:46;;;;;;;246.10;38.80;;;;;;;3.23;100.00;99447.17;106063;1288;59902;-72
2023/01/07 07:34:13;;;;;;;281.20;41.20;;;;;;;3.27;100.00;99443.36;106069;1281;59724;-72
2023/01/07 07:36:39;;;;;;;226.90;47.20;;;;;;;3.29;100.00;99445.23;106093;1282;59763;-72
2023/01/07 07:39:05;;;;;;;416.10;50.00;;;;;;;3.34;100.00;99446.85;106051;1286;65178;-74
2023/01/07 07:41:31;;;;;;;297.70;49.90;;;;;;;3.37;100.00;99444.99;106019;1288;60008;-72
2023/01/07 07:43:57;;;;;;;439.30;62.10;;;;;;;3.38;100.00;99444.98;106042;1288;59743;-71
2023/01/07 07:46:23;;;;;;;439.80;60.30;;;;;;;3.39;100.00;99446.34;105722;1290;60131;-72
2023/01/07 07:48:49;;;;;;;220.40;53.10;;;;;;;3.38;100.00;99447.95;105697;1293;59763;-72
2023/01/07 07:51:16;;;;;;;224.30;50.80;;;;;;;3.36;100.00;99452.07;105705;1287;59826;-71
2023/01/07 07:53:43;;;;;;;159.70;45.60;;;;;;;3.31;100.00;99450.09;105467;1281;59873;-72
2023/01/07 07:56:09;;;;;;;124.00;41.20;;;;;;;3.29;100.00;99448.73;105694;1301;59545;-72
2023/01/07 07:58:35;;;;;;;126.30;38.30;;;;;;;3.29;100.00;99445.77;105675;1294;60096;-73
2023/01/07 08:01:01;;;;;;;178.00;40.10;;;;;;;3.27;100.00;99442.48;105554;1295;59984;-72
2023/01/07 08:03:27;;;;;;;166.10;40.50;;;;;;;3.30;100.00;99434.49;105706;1285;59748;-72
2023/01/07 08:05:53;;;;;;;117.90;48.40;;;;;;;3.39;100.00;99432.46;105704;1285;60145;-72
2023/01/07 08:08:20;;;;;;;69.60;51.00;;;;;;;3.44;100.00;99430.38;105500;1296;59923;-72
2023/01/07 08:10:46;;;;;;;68.90;49.70;;;;;;;3.49;100.00;99431.29;105711;1293;59863;-72
2023/01/07 08:13:12;;;;;;;60.40;46.00;;;;;;;3.54;100.00;99428.67;105734;1288;60028;-71
2023/01/07 08:15:38;;;;;;;69.10;54.60;;;;;;;3.58;100.00;99426.80;105734;1291;59766;-71
2023/01/07 08:18:07;;;;;;;74.40;55.90;;;;;;;3.61;100.00;99427.58;105616;1297;59857;-71
2023/01/07 08:20:35;;;;;;;61.40;48.90;;;;;;;3.64;100.00;99428.34;105737;1295;66672;-72
2023/01/07 08:23:02;;;;;;;59.40;50.00;;;;;;;3.67;100.00;99420.89;106054;1280;60113;-72
2023/01/07 08:25:29;;;;;;;59.10;50.00;;;;;;;3.73;100.00;99419.27;105713;1282;65044;-72
2023/01/07 08:27:57;;;;;;;64.70;51.20;;;;;;;3.82;100.00;99422.17;106026;1287;59797;-72
2023/01/07 08:30:26;;;;;;;62.90;52.10;;;;;;;3.90;100.00;99422.27;106035;1281;59790;-72
2023/01/07 08:32:52;;;;;;;66.00;54.40;;;;;;;4.00;100.00;99418.75;106037;1288;67951;-72
2023/01/07 08:35:18;;;;;;;68.70;56.90;;;;;;;4.12;100.00;99418.69;105970;1291;59901;-72
2023/01/07 08:37:45;;;;;;;72.20;59.50;;;;;;;4.25;100.00;99414.90;106036;1281;64844;-72
2023/01/07 08:40:12;;;;;;;76.40;64.40;;;;;;;4.37;100.00;99411.52;106059;1288;59788;-72
2023/01/07 08:42:39;;;;;;;76.90;65.10;;;;;;;4.49;100.00;99407.91;106058;1288;59964;-72
2023/01/07 08:45:07;;;;;;;78.50;63.80;;;;;;;4.62;100.00;99412.38;106072;1288;67845;-71
2023/01/07 08:47:37;;;;;;;73.90;63.10;;;;;;;4.76;100.00;99415.40;106044;1289;61277;-70
2023/01/07 08:50:05;;;;;;;80.70;64.60;;;;;;;4.93;100.00;99417.25;106041;1297;65090;-71
2023/01/07 08:52:31;;;;;;;79.60;67.90;;;;;;;5.17;100.00;99414.21;106042;1288;59778;-71
2023/01/07 08:54:57;;;;;;;81.10;70.90;;;;;;;5.42;100.00;99421.35;105700;1294;59876;-71
2023/01/07 08:57:23;;;;;;;78.10;67.80;;;;;;;5.72;100.00;99423.70;105887;1294;60085;-71
2023/01/07 08:59:49;;;;;;;75.70;66.70;;;;;;;6.03;100.00;99420.67;106036;1281;59667;-70
2023/01/07 09:02:18;;;;;;;73.40;63.90;;;;;;;6.31;100.00;99421.79;106021;1289;60079;-72
2023/01/07 09:04:44;;;;;;;66.90;59.70;;;;;;;6.59;100.00;99419.90;106011;1288;59750;-71
2023/01/07 09:07:11;;;;;;;62.80;53.50;;;;;;;6.85;100.00;99418.04;105751;1294;59805;-71
2023/01/07 09:09:37;;;;;;;64.80;56.70;;;;;;;7.02;100.00;99415.89;106068;1289;60308;-71
2023/01/07 09:12:05;;;;;;;59.50;53.00;;;;;;;7.20;100.00;99422.11;106030;1282;59881;-71
2023/01/07 09:14:31;;;;;;;56.00;49.80;;;;;;;7.43;100.00;99427.77;106048;1285;65012;-71
2023/01/07 09:16:57;;;;;;;50.40;45.10;;;;;;;7.64;100.00;99420.90;106019;1289;59726;-72
2023/01/07 09:19:24;;;;;;;49.80;42.70;;;;;;;7.81;100.00;99417.24;106025;1288;59781;-71
2023/01/07 09:21:50;;;;;;;44.90;40.10;;;;;;;7.93;100.00;99421.27;106036;1288;59882;-72
2023/01/07 09:24:17;;;;;;;45.20;40.10;;;;;;;8.03;100.00;99419.53;106046;1289;59706;-71
2023/01/07 09:26:43;;;;;;;43.00;38.40;;;;;;;8.16;100.00;99416.42;106030;1281;59789;-71
2023/01/07 09:29:09;;;;;;;38.60;34.50;;;;;;;8.30;100.00;99421.17;106057;1290;60151;-71
2023/01/07 09:31:35;;;;;;;41.30;36.80;;;;;;;8.43;100.00;99417.73;106034;1289;59774;-71
2023/01/07 09:34:02;;;;;;;44.80;39.60;;;;;;;8.53;100.00;99416.50;106048;1281;59997;-70
2023/01/07 09:36:28;;;;;;;46.20;41.10;;;;;;;8.64;100.00;99417.02;106077;1289;60002;-71
2023/01/07 09:38:54;;;;;;;47.80;42.70;;;;;;;8.74;100.00;99419.64;106049;1287;59692;-71
2023/01/07 09:41:38;;;;;;;51.20;46.00;;;;;;;8.79;100.00;99412.11;106017;1294;59641;-72
2023/01/07 09:44:17;;;;;;;50.90;45.60;;;;;;;8.79;100.00;99410.54;106058;1282;59728;-71
2023/01/07 09:46:46;;;;;;;53.10;47.40;;;;;;;8.78;100.00;99410.23;106030;1287;66607;-71
2023/01/07 09:49:17;;;;;;;53.00;47.50;;;;;;;8.80;100.00;99407.81;106054;1297;60956;-70
2023/01/07 09:51:53;;;;;;;54.70;49.10;;;;;;;8.83;100.00;99408.02;105835;1284;64129;-71
2023/01/07 09:54:29;;;;;;;62.60;55.80;;;;;;;8.78;100.00;99411.11;106031;1288;59857;-71
2023/01/07 09:56:56;;;;;;;56.70;50.80;;;;;;;8.60;100.00;99408.33;105821;1291;59680;-71
2023/01/07 09:59:22;;;;;;;55.00;49.30;;;;;;;8.44;100.00;99408.98;106059;1287;60282;-71
2023/01/07 10:02:00;;;;;;;59.10;53.30;;;;;;;8.33;100.00;99412.70;106065;1281;59793;-72
2023/01/07 10:04:39;;;;;;;62.10;55.80;;;;;;;8.28;100.00;99412.80;106048;1288;64133;-70
2023/01/07 10:07:24;;;;;;;58.00;52.00;;;;;;;8.27;100.00;99411.98;106035;1289;59936;-71
2023/01/07 10:09:53;;;;;;;61.10;54.90;;;;;;;8.29;100.00;99409.92;106062;1289;59579;-71
2023/01/07 10:12:22;;;;;;;59.70;53.70;;;;;;;8.33;100.00;99403.83;106060;1288;67704;-71
2023/01/07 10:15:04;;;;;;;58.40;52.40;;;;;;;8.43;100.00;99395.02;106059;1289;60874;-71
2023/01/07 10:18:14;;;;;;;54.70;49.00;;;;;;;8.61;100.00;99391.09;106053;1288;64157;-72
2023/01/07 10:21:08;;;;;;;57.10;51.00;;;;;;;8.79;100.00;99387.86;106041;1288;59735;-71
2023/01/07 10:23:44;;;;;;;51.90;46.50;;;;;;;8.92;100.00;99379.91;106061;1289;59589;-71
2023/01/07 10:26:36;;;;;;;50.50;45.40;;;;;;;8.98;100.00;99379.59;106016;1289;67820;-72
2023/01/07 10:29:13;;;;;;;53.10;47.40;;;;;;;8.99;100.00;99379.32;106060;1289;59982;-71
2023/01/07 10:31:39;;;;;;;52.50;47.00;;;;;;;8.93;100.00;99375.96;106056;1289;64944;-71
2023/01/07 10:34:13;;;;;;;51.90;46.50;;;;;;;8.84;100.00;99380.16;106030;1295;59773;-70
2023/01/07 10:36:59;;;;;;;54.00;48.40;;;;;;;8.81;100.00;99378.36;106056;1287;59955;-71
2023/01/07 10:39:40;;;;;;;54.80;48.90;;;;;;;8.82;100.00;99375.14;106051;1281;66590;-71
2023/01/07 10:42:44;;;;;;;49.50;44.40;;;;;;;8.81;100.00;99374.63;105882;1291;60998;-71
2023/01/07 10:45:32;;;;;;;51.00;45.60;;;;;;;8.80;100.00;99369.94;105398;1297;64992;-71
2023/01/07 10:48:25;;;;;;;50.80;45.60;;;;;;;8.76;100.00;99366.75;105379;1297;59758;-71
2023/01/07 10:51:12;;;;;;;51.20;45.00;;;;;;;8.80;100.00;99364.98;105410;1297;59998;-71
2023/01/07 10:54:00;;;;;;;50.40;45.00;;;;;;;8.82;100.00;99359.52;105157;1302;66810;-71
2023/01/07 10:56:30;;;;;;;49.20;43.90;;;;;;;8.84;100.00;99359.45;105115;1303;59957;-71
2023/01/07 10:58:56;;;;;;;;;;;;;;;8.83;100.00;99357.54;105402;1296;63915;-71
2023/01/07 11:01:30;;;;;;;53.30;47.60;;;;;;;8.85;100.00;99353.92;105387;1299;59988;-71
2023/01/07 11:03:59;;;;;;;49.60;44.30;;;;;;;8.88;100.00;99351.95;105372;1297;59736;-71
2023/01/07 11:06:43;;;;;;;53.50;47.90;;;;;;;8.90;100.00;99350.59;105395;1295;66613;-71
2023/01/07 11:09:16;;;;;;;49.30;44.00;;;;;;;8.93;100.00;99346.02;105410;1297;60863;-72
2023/01/07 11:11:44;;;;;;;48.90;43.70;;;;;;;8.96;100.00;99342.10;105397;1297;65259;-71
2023/01/07 11:14:21;;;;;;;50.30;44.60;;;;;;;8.96;100.00;99340.68;105364;1297;59965;-72
2023/01/07 11:16:53;;;;;;;43.00;37.90;;;;;;;8.94;100.00;99342.05;105390;1298;59845;-72
2023/01/07 11:19:19;;;;;;;46.20;41.50;;;;;;;8.89;100.00;99341.98;105634;1289;67781;-72
2023/01/07 11:21:51;;;;;;;47.10;42.20;;;;;;;8.87;100.00;99338.17;106028;1288;60435;-71
2023/01/07 11:24:25;;;;;;;46.50;41.60;;;;;;;8.90;100.00;99331.98;106057;1289;64007;-71